KRNC/RNC METAR and TAF weather

Enter ICAO airport designator
Station Type Date Time Source
KRNC METAR 2020/10/20 17:55 UTC NOAA

KRNC 201755Z AUTO 20004KT 10SM OVC060 24/15 A3019 RMK A01


Station Type Date Time Source
KRNC Decoded METAR 2020/10/20 17:55 UTC NOAA

Station name not available
Oct 20, 2020 - 01:55 PM EDT / 2020.10.20 1755 UTC
Wind: from the SSW (200 degrees) at 5 MPH (4 KT):0
Visibility: 10 mile(s):0
Sky conditions: overcast
Temperature: 75 F (24 C)
Dew Point: 59 F (15 C)
Relative Humidity: 57%
Pressure (altimeter): 30.19 in. Hg (1022 hPa)
ob: KRNC 201755Z AUTO 20004KT 10SM OVC060 24/15 A3019 RMK A01
cycle: 18

Station Type Date Time Source
KRNC TAF 2009/08/31 19:45 UTC NOAA

METAR KRNC 311945Z AUTO 35008KT 10SM CLR 25/12 A3011
RMK AO1 T02500116 $

Example: see airport list